createdAt,value
2018-12-15T20:55:02.342Z,86.87
2018-12-15T20:57:30.932Z,86.94
2018-12-15T20:59:59.733Z,87.14
2018-12-15T21:02:28.416Z,87.09
2018-12-15T21:04:57.364Z,87.31
2018-12-15T21:07:26.000Z,87.16
2018-12-15T21:09:54.690Z,87.03
2018-12-15T21:12:23.484Z,87.16
2018-12-15T21:14:52.062Z,87.02
2018-12-15T21:17:21.116Z,87.05
2018-12-15T21:19:49.683Z,87.30
2018-12-15T21:22:18.678Z,87.31
2018-12-15T21:24:47.263Z,87.40
2018-12-15T21:27:15.954Z,87.48
2018-12-15T21:29:44.662Z,87.60
2018-12-15T21:32:13.312Z,87.85
2018-12-15T21:34:41.941Z,87.83
2018-12-15T21:37:10.495Z,88.00
2018-12-15T21:39:39.450Z,87.87
2018-12-15T21:42:08.002Z,88.21
2018-12-15T21:44:36.829Z,88.36
2018-12-15T21:47:05.412Z,88.18
2018-12-15T21:49:34.130Z,88.57
2018-12-15T21:52:02.776Z,88.61
2018-12-15T21:54:31.466Z,88.92
2018-12-15T21:57:00.314Z,88.86
2018-12-15T21:59:28.899Z,89.20
2018-12-15T22:01:57.634Z,89.54
2018-12-15T22:04:26.166Z,89.48
2018-12-15T22:06:54.753Z,89.46
2018-12-15T22:09:23.445Z,89.69
2018-12-15T22:11:52.020Z,89.14
2018-12-15T22:14:20.668Z,89.92
2018-12-15T22:16:49.429Z,90.30
2018-12-15T22:19:19.095Z,89.98
2018-12-15T22:21:47.644Z,89.96
2018-12-15T22:24:16.616Z,89.80
2018-12-15T22:26:45.150Z,90.11
2018-12-15T22:29:14.048Z,90.15
2018-12-15T22:31:42.934Z,90.78
2018-12-15T22:34:11.627Z,90.68
2018-12-15T22:36:40.304Z,90.20
2018-12-15T22:39:08.936Z,90.40
2018-12-15T22:41:37.878Z,91.04
2018-12-15T22:46:45.351Z,90.17
2018-12-15T22:49:14.032Z,90.42
2018-12-15T22:51:42.568Z,90.68
2018-12-15T22:54:11.690Z,90.75
2018-12-15T22:56:40.237Z,90.84
2018-12-15T22:59:09.189Z,91.66
2018-12-15T23:01:43.030Z,91.39
2018-12-15T23:04:11.609Z,91.14
2018-12-15T23:06:40.191Z,90.75
2018-12-15T23:09:08.908Z,90.56
2018-12-15T23:11:37.565Z,91.33
2018-12-15T23:14:06.523Z,91.65
2018-12-15T23:16:35.070Z,91.42
2018-12-15T23:19:03.730Z,91.49
2018-12-15T23:21:32.474Z,91.59
2018-12-15T23:24:01.085Z,91.62
2018-12-15T23:26:29.986Z,91.90
2018-12-15T23:28:59.146Z,91.97
2018-12-15T23:31:28.003Z,91.79
2018-12-15T23:33:56.547Z,92.15
2018-12-15T23:36:25.437Z,92.76
2018-12-15T23:38:54.011Z,92.27
2018-12-15T23:41:22.699Z,92.85
2018-12-15T23:43:51.290Z,93.29
2018-12-15T23:46:19.908Z,92.12
2018-12-15T23:48:48.636Z,92.59
2018-12-15T23:51:17.239Z,92.02
2018-12-15T23:53:46.237Z,92.65
2018-12-15T23:56:14.817Z,92.48
2018-12-15T23:58:43.516Z,93.10
